Tzoanna Vi — SYHY — position and weather

sailwx.info

Track history (hours):
 
Tides and Currents Weather Stations Pressure Air Temp Water Temp Dewpoint Dewpoint Depression Visibility Wind Speed Wind Dir Waves Ship Positions

Tzoanna Vi

Last reported at 2014-Sep-29 17:31 UTC. Time now 2014-Sep-30 13:50 UTC.
Position N 38°22' E 023°51'.

Length 84 m; draft 5.5 m.

Type: Cargo ship. MMSI: 237991700.

Date/timePositionNaut miles runAvg speedWind from/ knotsBaromVisibWave heightAir tempDewpointWater temp
2014-Sep-29 17:31N 38°22' E 023°51'0 0.0
2014-Sep-28 23:13N 38°22' E 023°51'  
2014-Sep-25 15:17N 37°25' E 024°21'25 9.0
2014-Sep-25 12:33N 37°01' E 024°19'9 9.0
2014-Sep-25 11:33N 36°52' E 024°19'10 9.0
2014-Sep-25 10:28N 36°42' E 024°19'4 4.0
2014-Sep-25 09:33N 36°39' E 024°21'0 0.0
2014-Sep-25 08:33N 36°39' E 024°21'0 0.0
2014-Sep-25 07:27N 36°39' E 024°21'0 0.0
2014-Sep-25 05:21N 36°39' E 024°21'0 0.3
2014-Sep-25 04:21N 36°39' E 024°21'0 0.1
2014-Sep-25 03:33N 36°39' E 024°21'0 0.0
2014-Sep-25 02:33N 36°39' E 024°21'0 0.0
2014-Sep-25 01:33N 36°39' E 024°21'0 0.0
2014-Sep-25 00:33N 36°39' E 024°21'0 0.0
2014-Sep-24 23:33N 36°39' E 024°21'0 0.0
2014-Sep-24 22:33N 36°39' E 024°21'0 0.1
2014-Sep-24 21:33N 36°39' E 024°21'0 0.0
2014-Sep-24 20:33N 36°39' E 024°21'0 0.0
2014-Sep-24 19:33N 36°39' E 024°21'0 0.0
2014-Sep-24 18:33N 36°39' E 024°21'0 0.1
2014-Sep-24 17:33N 36°39' E 024°21'0 0.0
2014-Sep-24 16:33N 36°39' E 024°21'0 0.1
2014-Sep-24 15:33N 36°39' E 024°21'0 0.0
2014-Sep-24 14:27N 36°39' E 024°21'0 0.1
2014-Sep-24 13:33N 36°39' E 024°21'5 5.1
2014-Sep-24 12:33N 36°42' E 024°16'10 9.8
2014-Sep-24 11:33N 36°50' E 024°09'10 9.8
2014-Sep-24 10:33N 36°59' E 024°04'39 9.1
2014-Sep-24 06:14N 37°33' E 023°39'6 9.0
2014-Sep-24 05:33N 37°36' E 023°33'9 9.3
2014-Sep-24 04:33N 37°39' E 023°22'9 9.1
2014-Sep-24 03:33N 37°46' E 023°14'27 0.6
2014-Sep-22 06:26N 38°02' E 022°47'13 6.4
2014-Sep-22 04:23N 37°55' E 023°01'0 0.3
2014-Sep-22 03:30N 37°55' E 023°01'0 0.0
2014-Sep-22 02:15N 37°55' E 023°01'0 0.0
2014-Sep-22 01:33N 37°55' E 023°01'0 0.0
2014-Sep-22 00:09N 37°55' E 023°01'0 0.0
2014-Sep-21 23:33N 37°55' E 023°01'0 0.0
2014-Sep-21 19:15N 37°55' E 023°01'2 2.5
2014-Sep-21 18:32N 37°54' E 023°03'8 8.3
2014-Sep-21 17:33N 37°49' E 023°11'8 8.5
2014-Sep-21 16:33N 37°42' E 023°17'8 8.0
2014-Sep-21 15:33N 37°40' E 023°27'8 8.4
2014-Sep-21 14:33N 37°39' E 023°38'9 8.6
2014-Sep-21 13:33N 37°39' E 023°48'  
Track history (hours):
 
Tides and Currents Weather Stations Pressure Air Temp Water Temp Dewpoint Dewpoint Depression Visibility Wind Speed Wind Dir Waves Ship Positions

Tzoanna Vi

Last reported at 2014-Sep-29 17:31 UTC. Time now 2014-Sep-30 13:50 UTC.
Position N 38°22' E 023°51'.

Length 84 m; draft 5.5 m.

Type: Cargo ship. MMSI: 237991700.

Date/timePositionNaut miles runAvg speedWind from/ knotsBaromVisibWave heightAir tempDewpointWater temp
2014-Sep-29 17:31N 38°22' E 023°51'0 0.0
2014-Sep-28 23:13N 38°22' E 023°51'  
2014-Sep-25 15:17N 37°25' E 024°21'25 9.0
2014-Sep-25 12:33N 37°01' E 024°19'9 9.0
2014-Sep-25 11:33N 36°52' E 024°19'10 9.0
2014-Sep-25 10:28N 36°42' E 024°19'4 4.0
2014-Sep-25 09:33N 36°39' E 024°21'0 0.0
2014-Sep-25 08:33N 36°39' E 024°21'0 0.0
2014-Sep-25 07:27N 36°39' E 024°21'0 0.0
2014-Sep-25 05:21N 36°39' E 024°21'0 0.3
2014-Sep-25 04:21N 36°39' E 024°21'0 0.1
2014-Sep-25 03:33N 36°39' E 024°21'0 0.0
2014-Sep-25 02:33N 36°39' E 024°21'0 0.0
2014-Sep-25 01:33N 36°39' E 024°21'0 0.0
2014-Sep-25 00:33N 36°39' E 024°21'0 0.0
2014-Sep-24 23:33N 36°39' E 024°21'0 0.0
2014-Sep-24 22:33N 36°39' E 024°21'0 0.1
2014-Sep-24 21:33N 36°39' E 024°21'0 0.0
2014-Sep-24 20:33N 36°39' E 024°21'0 0.0
2014-Sep-24 19:33N 36°39' E 024°21'0 0.0
2014-Sep-24 18:33N 36°39' E 024°21'0 0.1
2014-Sep-24 17:33N 36°39' E 024°21'0 0.0
2014-Sep-24 16:33N 36°39' E 024°21'0 0.1
2014-Sep-24 15:33N 36°39' E 024°21'0 0.0
2014-Sep-24 14:27N 36°39' E 024°21'0 0.1
2014-Sep-24 13:33N 36°39' E 024°21'5 5.1
2014-Sep-24 12:33N 36°42' E 024°16'10 9.8
2014-Sep-24 11:33N 36°50' E 024°09'10 9.8
2014-Sep-24 10:33N 36°59' E 024°04'39 9.1
2014-Sep-24 06:14N 37°33' E 023°39'6 9.0
2014-Sep-24 05:33N 37°36' E 023°33'9 9.3
2014-Sep-24 04:33N 37°39' E 023°22'9 9.1
2014-Sep-24 03:33N 37°46' E 023°14'27 0.6
2014-Sep-22 06:26N 38°02' E 022°47'13 6.4
2014-Sep-22 04:23N 37°55' E 023°01'0 0.3
2014-Sep-22 03:30N 37°55' E 023°01'0 0.0
2014-Sep-22 02:15N 37°55' E 023°01'0 0.0
2014-Sep-22 01:33N 37°55' E 023°01'0 0.0
2014-Sep-22 00:09N 37°55' E 023°01'0 0.0
2014-Sep-21 23:33N 37°55' E 023°01'0 0.0
2014-Sep-21 19:15N 37°55' E 023°01'2 2.5
2014-Sep-21 18:32N 37°54' E 023°03'8 8.3
2014-Sep-21 17:33N 37°49' E 023°11'8 8.5
2014-Sep-21 16:33N 37°42' E 023°17'8 8.0
2014-Sep-21 15:33N 37°40' E 023°27'8 8.4
2014-Sep-21 14:33N 37°39' E 023°38'9 8.6
2014-Sep-21 13:33N 37°39' E 023°48'  

Dump ship's entire track history